sensor_id;sensor_type;location;lat;lon;timestamp;P1;durP1;ratioP1;P2;durP2;ratioP2
67595;SDS011;54410;48.694;8.934;2023-04-19T00:00:46;8.30;;;6.57;;
67595;SDS011;54410;48.694;8.934;2023-04-19T00:03:12;10.52;;;7.55;;
67595;SDS011;54410;48.694;8.934;2023-04-19T00:05:38;11.40;;;7.88;;
67595;SDS011;54410;48.694;8.934;2023-04-19T00:08:05;10.82;;;7.22;;
67595;SDS011;54410;48.694;8.934;2023-04-19T00:10:31;10.73;;;7.53;;
67595;SDS011;54410;48.694;8.934;2023-04-19T00:12:57;8.70;;;6.57;;
67595;SDS011;54410;48.694;8.934;2023-04-19T00:15:23;11.57;;;8.15;;
67595;SDS011;54410;48.694;8.934;2023-04-19T00:17:49;10.68;;;7.57;;
67595;SDS011;54410;48.694;8.934;2023-04-19T00:20:15;12.10;;;7.35;;
67595;SDS011;54410;48.694;8.934;2023-04-19T00:22:41;12.35;;;8.05;;
67595;SDS011;54410;48.694;8.934;2023-04-19T00:25:07;9.02;;;6.55;;
67595;SDS011;54410;48.694;8.934;2023-04-19T00:27:33;11.80;;;7.80;;
67595;SDS011;54410;48.694;8.934;2023-04-19T00:30:00;13.38;;;9.15;;
67595;SDS011;54410;48.694;8.934;2023-04-19T00:32:26;9.73;;;7.50;;
67595;SDS011;54410;48.694;8.934;2023-04-19T00:34:51;12.10;;;8.27;;
67595;SDS011;54410;48.694;8.934;2023-04-19T00:37:18;9.60;;;7.38;;
67595;SDS011;54410;48.694;8.934;2023-04-19T00:39:44;11.70;;;8.50;;
67595;SDS011;54410;48.694;8.934;2023-04-19T00:42:11;10.00;;;7.20;;
67595;SDS011;54410;48.694;8.934;2023-04-19T00:44:37;13.05;;;9.23;;
67595;SDS011;54410;48.694;8.934;2023-04-19T00:47:03;12.38;;;8.40;;
67595;SDS011;54410;48.694;8.934;2023-04-19T00:49:29;10.95;;;8.18;;
67595;SDS011;54410;48.694;8.934;2023-04-19T00:51:55;12.07;;;8.27;;
67595;SDS011;54410;48.694;8.934;2023-04-19T00:54:21;10.75;;;7.18;;
67595;SDS011;54410;48.694;8.934;2023-04-19T00:56:48;11.38;;;8.60;;
67595;SDS011;54410;48.694;8.934;2023-04-19T00:59:14;12.43;;;8.88;;
67595;SDS011;54410;48.694;8.934;2023-04-19T01:01:40;11.95;;;8.60;;
67595;SDS011;54410;48.694;8.934;2023-04-19T01:04:07;10.70;;;8.00;;
67595;SDS011;54410;48.694;8.934;2023-04-19T01:06:36;11.63;;;8.50;;
67595;SDS011;54410;48.694;8.934;2023-04-19T01:09:02;13.15;;;9.30;;
67595;SDS011;54410;48.694;8.934;2023-04-19T01:11:28;14.15;;;9.50;;
67595;SDS011;54410;48.694;8.934;2023-04-19T01:13:54;14.50;;;10.05;;
67595;SDS011;54410;48.694;8.934;2023-04-19T01:16:22;13.75;;;10.02;;
67595;SDS011;54410;48.694;8.934;2023-04-19T01:18:48;11.52;;;8.35;;
67595;SDS011;54410;48.694;8.934;2023-04-19T01:21:13;13.15;;;9.70;;
67595;SDS011;54410;48.694;8.934;2023-04-19T01:23:39;14.70;;;9.50;;
67595;SDS011;54410;48.694;8.934;2023-04-19T01:26:06;12.48;;;9.35;;
67595;SDS011;54410;48.694;8.934;2023-04-19T01:28:32;14.40;;;10.20;;
67595;SDS011;54410;48.694;8.934;2023-04-19T01:30:57;12.13;;;8.85;;
67595;SDS011;54410;48.694;8.934;2023-04-19T01:33:23;14.00;;;9.30;;
67595;SDS011;54410;48.694;8.934;2023-04-19T01:35:49;12.52;;;8.73;;
67595;SDS011;54410;48.694;8.934;2023-04-19T01:38:15;18.30;;;9.65;;
67595;SDS011;54410;48.694;8.934;2023-04-19T01:40:41;14.13;;;9.50;;
67595;SDS011;54410;48.694;8.934;2023-04-19T01:43:07;14.55;;;9.75;;
67595;SDS011;54410;48.694;8.934;2023-04-19T01:45:33;11.82;;;9.02;;
67595;SDS011;54410;48.694;8.934;2023-04-19T01:48:00;15.52;;;9.63;;
67595;SDS011;54410;48.694;8.934;2023-04-19T01:50:29;12.23;;;8.98;;
67595;SDS011;54410;48.694;8.934;2023-04-19T01:52:56;18.40;;;10.57;;
67595;SDS011;54410;48.694;8.934;2023-04-19T01:55:22;12.70;;;9.63;;
67595;SDS011;54410;48.694;8.934;2023-04-19T01:57:48;17.85;;;10.38;;
67595;SDS011;54410;48.694;8.934;2023-04-19T02:00:14;16.63;;;10.95;;
67595;SDS011;54410;48.694;8.934;2023-04-19T02:02:42;16.15;;;9.82;;
67595;SDS011;54410;48.694;8.934;2023-04-19T02:05:08;13.43;;;9.70;;
67595;SDS011;54410;48.694;8.934;2023-04-19T02:07:34;18.63;;;10.95;;
67595;SDS011;54410;48.694;8.934;2023-04-19T02:10:00;14.05;;;10.15;;
67595;SDS011;54410;48.694;8.934;2023-04-19T02:12:26;15.90;;;10.63;;
67595;SDS011;54410;48.694;8.934;2023-04-19T02:14:53;12.82;;;9.73;;
67595;SDS011;54410;48.694;8.934;2023-04-19T02:17:21;14.85;;;9.75;;
67595;SDS011;54410;48.694;8.934;2023-04-19T02:19:50;12.95;;;9.25;;
67595;SDS011;54410;48.694;8.934;2023-04-19T02:22:16;15.90;;;10.48;;
67595;SDS011;54410;48.694;8.934;2023-04-19T02:24:43;14.70;;;10.20;;
67595;SDS011;54410;48.694;8.934;2023-04-19T02:27:08;17.88;;;10.85;;
67595;SDS011;54410;48.694;8.934;2023-04-19T02:29:34;14.63;;;9.88;;
67595;SDS011;54410;48.694;8.934;2023-04-19T02:32:00;18.98;;;11.25;;
67595;SDS011;54410;48.694;8.934;2023-04-19T02:34:30;15.38;;;10.38;;
67595;SDS011;54410;48.694;8.934;2023-04-19T02:36:56;15.55;;;9.73;;
67595;SDS011;54410;48.694;8.934;2023-04-19T02:39:21;18.33;;;11.43;;
67595;SDS011;54410;48.694;8.934;2023-04-19T02:41:47;16.07;;;10.93;;
67595;SDS011;54410;48.694;8.934;2023-04-19T02:44:13;16.20;;;11.97;;
67595;SDS011;54410;48.694;8.934;2023-04-19T02:46:39;15.20;;;10.63;;
67595;SDS011;54410;48.694;8.934;2023-04-19T02:49:05;20.27;;;11.98;;
67595;SDS011;54410;48.694;8.934;2023-04-19T02:51:32;20.23;;;11.77;;
67595;SDS011;54410;48.694;8.934;2023-04-19T02:53:57;20.40;;;12.07;;
67595;SDS011;54410;48.694;8.934;2023-04-19T02:56:23;20.23;;;11.85;;
67595;SDS011;54410;48.694;8.934;2023-04-19T02:58:49;19.33;;;11.57;;
67595;SDS011;54410;48.694;8.934;2023-04-19T03:01:15;16.33;;;11.07;;
67595;SDS011;54410;48.694;8.934;2023-04-19T03:03:41;19.10;;;11.80;;
67595;SDS011;54410;48.694;8.934;2023-04-19T03:06:07;15.57;;;11.10;;
67595;SDS011;54410;48.694;8.934;2023-04-19T03:08:33;17.17;;;11.15;;
67595;SDS011;54410;48.694;8.934;2023-04-19T03:11:00;16.95;;;11.25;;
67595;SDS011;54410;48.694;8.934;2023-04-19T03:13:25;20.58;;;12.23;;
67595;SDS011;54410;48.694;8.934;2023-04-19T03:15:51;20.00;;;11.27;;
67595;SDS011;54410;48.694;8.934;2023-04-19T03:18:17;17.40;;;11.25;;
67595;SDS011;54410;48.694;8.934;2023-04-19T03:20:43;19.50;;;12.15;;
67595;SDS011;54410;48.694;8.934;2023-04-19T03:23:09;13.93;;;10.32;;
67595;SDS011;54410;48.694;8.934;2023-04-19T03:25:35;18.08;;;11.95;;
67595;SDS011;54410;48.694;8.934;2023-04-19T03:28:01;20.83;;;12.45;;
67595;SDS011;54410;48.694;8.934;2023-04-19T03:30:27;18.40;;;12.10;;
67595;SDS011;54410;48.694;8.934;2023-04-19T03:32:53;16.20;;;11.15;;
67595;SDS011;54410;48.694;8.934;2023-04-19T03:35:19;21.85;;;11.77;;
67595;SDS011;54410;48.694;8.934;2023-04-19T03:37:46;20.42;;;12.13;;
67595;SDS011;54410;48.694;8.934;2023-04-19T03:40:12;15.65;;;10.95;;
67595;SDS011;54410;48.694;8.934;2023-04-19T03:42:38;19.63;;;12.40;;
67595;SDS011;54410;48.694;8.934;2023-04-19T03:45:04;20.38;;;12.30;;
67595;SDS011;54410;48.694;8.934;2023-04-19T03:47:30;18.02;;;11.38;;
67595;SDS011;54410;48.694;8.934;2023-04-19T03:49:56;19.67;;;12.48;;
67595;SDS011;54410;48.694;8.934;2023-04-19T03:52:22;18.80;;;11.73;;
67595;SDS011;54410;48.694;8.934;2023-04-19T03:54:49;22.45;;;13.85;;
67595;SDS011;54410;48.694;8.934;2023-04-19T03:57:15;21.67;;;13.02;;
67595;SDS011;54410;48.694;8.934;2023-04-19T03:59:41;21.88;;;13.30;;
67595;SDS011;54410;48.694;8.934;2023-04-19T04:02:07;19.77;;;12.87;;
67595;SDS011;54410;48.694;8.934;2023-04-19T04:04:32;23.67;;;13.05;;
67595;SDS011;54410;48.694;8.934;2023-04-19T04:06:59;19.35;;;11.93;;
67595;SDS011;54410;48.694;8.934;2023-04-19T04:09:25;22.85;;;13.43;;
67595;SDS011;54410;48.694;8.934;2023-04-19T04:11:51;18.13;;;11.23;;
67595;SDS011;54410;48.694;8.934;2023-04-19T04:14:17;22.75;;;13.80;;
67595;SDS011;54410;48.694;8.934;2023-04-19T04:16:43;20.70;;;13.50;;
67595;SDS011;54410;48.694;8.934;2023-04-19T04:19:09;21.95;;;13.45;;
67595;SDS011;54410;48.694;8.934;2023-04-19T04:21:35;21.08;;;13.20;;
67595;SDS011;54410;48.694;8.934;2023-04-19T04:24:01;21.92;;;12.77;;
67595;SDS011;54410;48.694;8.934;2023-04-19T04:26:27;21.70;;;13.43;;
67595;SDS011;54410;48.694;8.934;2023-04-19T04:28:54;20.17;;;13.50;;
67595;SDS011;54410;48.694;8.934;2023-04-19T04:31:21;22.80;;;14.07;;
67595;SDS011;54410;48.694;8.934;2023-04-19T04:33:46;19.25;;;12.35;;
67595;SDS011;54410;48.694;8.934;2023-04-19T04:36:12;21.20;;;13.93;;
67595;SDS011;54410;48.694;8.934;2023-04-19T04:38:39;20.23;;;12.93;;
67595;SDS011;54410;48.694;8.934;2023-04-19T04:41:04;24.20;;;14.97;;
67595;SDS011;54410;48.694;8.934;2023-04-19T04:43:31;18.53;;;12.67;;
67595;SDS011;54410;48.694;8.934;2023-04-19T04:45:58;26.47;;;14.77;;
67595;SDS011;54410;48.694;8.934;2023-04-19T04:48:25;20.25;;;13.23;;
67595;SDS011;54410;48.694;8.934;2023-04-19T04:50:50;26.43;;;15.17;;
67595;SDS011;54410;48.694;8.934;2023-04-19T04:53:17;18.73;;;12.80;;
67595;SDS011;54410;48.694;8.934;2023-04-19T04:55:44;22.63;;;14.37;;
67595;SDS011;54410;48.694;8.934;2023-04-19T04:58:10;21.17;;;14.05;;
67595;SDS011;54410;48.694;8.934;2023-04-19T05:00:36;24.30;;;14.40;;
67595;SDS011;54410;48.694;8.934;2023-04-19T05:03:02;22.40;;;13.90;;
67595;SDS011;54410;48.694;8.934;2023-04-19T05:05:28;25.60;;;14.60;;
67595;SDS011;54410;48.694;8.934;2023-04-19T05:07:54;23.07;;;13.93;;
67595;SDS011;54410;48.694;8.934;2023-04-19T05:10:20;21.65;;;12.68;;
67595;SDS011;54410;48.694;8.934;2023-04-19T05:12:46;25.10;;;14.82;;
67595;SDS011;54410;48.694;8.934;2023-04-19T05:15:12;23.38;;;14.63;;
67595;SDS011;54410;48.694;8.934;2023-04-19T05:17:38;19.08;;;12.57;;
67595;SDS011;54410;48.694;8.934;2023-04-19T05:20:04;21.02;;;12.73;;
67595;SDS011;54410;48.694;8.934;2023-04-19T05:22:30;19.63;;;12.57;;
67595;SDS011;54410;48.694;8.934;2023-04-19T05:24:56;22.47;;;14.23;;
67595;SDS011;54410;48.694;8.934;2023-04-19T05:27:22;21.55;;;14.30;;
67595;SDS011;54410;48.694;8.934;2023-04-19T05:29:48;24.50;;;14.10;;
67595;SDS011;54410;48.694;8.934;2023-04-19T05:32:15;20.67;;;13.63;;
67595;SDS011;54410;48.694;8.934;2023-04-19T05:34:41;26.38;;;14.68;;
67595;SDS011;54410;48.694;8.934;2023-04-19T05:37:07;19.45;;;12.23;;
67595;SDS011;54410;48.694;8.934;2023-04-19T05:39:33;22.95;;;15.05;;
67595;SDS011;54410;48.694;8.934;2023-04-19T05:41:59;21.65;;;13.05;;
67595;SDS011;54410;48.694;8.934;2023-04-19T05:44:25;23.35;;;13.27;;
67595;SDS011;54410;48.694;8.934;2023-04-19T05:46:51;22.53;;;12.60;;
67595;SDS011;54410;48.694;8.934;2023-04-19T05:49:17;20.67;;;12.88;;
67595;SDS011;54410;48.694;8.934;2023-04-19T05:51:43;21.42;;;13.68;;
67595;SDS011;54410;48.694;8.934;2023-04-19T05:54:09;17.77;;;12.43;;
67595;SDS011;54410;48.694;8.934;2023-04-19T05:56:37;25.75;;;14.65;;
67595;SDS011;54410;48.694;8.934;2023-04-19T05:59:03;22.50;;;13.45;;
67595;SDS011;54410;48.694;8.934;2023-04-19T06:01:30;22.03;;;14.03;;
67595;SDS011;54410;48.694;8.934;2023-04-19T06:03:56;19.35;;;12.32;;
67595;SDS011;54410;48.694;8.934;2023-04-19T06:06:22;21.90;;;13.00;;
67595;SDS011;54410;48.694;8.934;2023-04-19T06:08:48;21.80;;;12.23;;
67595;SDS011;54410;48.694;8.934;2023-04-19T06:11:14;22.52;;;13.32;;
67595;SDS011;54410;48.694;8.934;2023-04-19T06:13:40;18.00;;;12.18;;
67595;SDS011;54410;48.694;8.934;2023-04-19T06:16:07;19.80;;;12.68;;
67595;SDS011;54410;48.694;8.934;2023-04-19T06:18:33;14.35;;;10.45;;
67595;SDS011;54410;48.694;8.934;2023-04-19T06:20:59;20.27;;;12.05;;
67595;SDS011;54410;48.694;8.934;2023-04-19T06:23:25;18.40;;;12.48;;
67595;SDS011;54410;48.694;8.934;2023-04-19T06:25:51;18.98;;;11.38;;
67595;SDS011;54410;48.694;8.934;2023-04-19T06:28:17;19.27;;;11.45;;
67595;SDS011;54410;48.694;8.934;2023-04-19T06:30:44;15.02;;;11.00;;
67595;SDS011;54410;48.694;8.934;2023-04-19T06:33:10;18.20;;;11.75;;
67595;SDS011;54410;48.694;8.934;2023-04-19T06:35:36;16.83;;;11.18;;
67595;SDS011;54410;48.694;8.934;2023-04-19T06:38:02;17.63;;;11.60;;
67595;SDS011;54410;48.694;8.934;2023-04-19T06:40:28;18.50;;;11.23;;
67595;SDS011;54410;48.694;8.934;2023-04-19T06:42:54;20.63;;;12.10;;
67595;SDS011;54410;48.694;8.934;2023-04-19T06:45:20;14.07;;;10.43;;
67595;SDS011;54410;48.694;8.934;2023-04-19T06:47:46;18.60;;;11.65;;
67595;SDS011;54410;48.694;8.934;2023-04-19T06:50:12;17.92;;;11.38;;
67595;SDS011;54410;48.694;8.934;2023-04-19T06:52:38;20.75;;;11.95;;
67595;SDS011;54410;48.694;8.934;2023-04-19T06:55:05;16.77;;;12.25;;
67595;SDS011;54410;48.694;8.934;2023-04-19T06:57:31;18.55;;;11.35;;
67595;SDS011;54410;48.694;8.934;2023-04-19T06:59:57;17.38;;;11.00;;
67595;SDS011;54410;48.694;8.934;2023-04-19T07:02:23;16.52;;;10.75;;
67595;SDS011;54410;48.694;8.934;2023-04-19T07:04:49;25.58;;;14.73;;
67595;SDS011;54410;48.694;8.934;2023-04-19T07:07:15;23.25;;;19.20;;
67595;SDS011;54410;48.694;8.934;2023-04-19T07:09:41;19.85;;;10.70;;
67595;SDS011;54410;48.694;8.934;2023-04-19T07:12:07;13.63;;;10.40;;
67595;SDS011;54410;48.694;8.934;2023-04-19T07:14:33;14.93;;;10.65;;
67595;SDS011;54410;48.694;8.934;2023-04-19T07:16:59;18.05;;;10.02;;
67595;SDS011;54410;48.694;8.934;2023-04-19T07:19:25;16.50;;;10.32;;
67595;SDS011;54410;48.694;8.934;2023-04-19T07:21:53;16.88;;;11.25;;
67595;SDS011;54410;48.694;8.934;2023-04-19T07:24:18;17.90;;;10.73;;
67595;SDS011;54410;48.694;8.934;2023-04-19T07:26:44;15.15;;;10.85;;
67595;SDS011;54410;48.694;8.934;2023-04-19T07:29:10;14.98;;;10.65;;
67595;SDS011;54410;48.694;8.934;2023-04-19T07:31:36;14.80;;;9.68;;
67595;SDS011;54410;48.694;8.934;2023-04-19T07:34:02;15.40;;;9.77;;
67595;SDS011;54410;48.694;8.934;2023-04-19T07:36:28;17.67;;;10.70;;
67595;SDS011;54410;48.694;8.934;2023-04-19T07:38:55;13.13;;;9.30;;
67595;SDS011;54410;48.694;8.934;2023-04-19T07:41:21;13.30;;;9.35;;
67595;SDS011;54410;48.694;8.934;2023-04-19T07:43:47;13.27;;;8.95;;
67595;SDS011;54410;48.694;8.934;2023-04-19T07:46:13;13.82;;;8.73;;
67595;SDS011;54410;48.694;8.934;2023-04-19T07:48:42;11.57;;;8.50;;
67595;SDS011;54410;48.694;8.934;2023-04-19T07:51:12;12.20;;;7.97;;
67595;SDS011;54410;48.694;8.934;2023-04-19T07:53:39;13.00;;;8.27;;
67595;SDS011;54410;48.694;8.934;2023-04-19T07:56:08;10.25;;;7.97;;
67595;SDS011;54410;48.694;8.934;2023-04-19T07:58:35;11.02;;;8.27;;
67595;SDS011;54410;48.694;8.934;2023-04-19T08:01:01;11.48;;;7.88;;
67595;SDS011;54410;48.694;8.934;2023-04-19T08:03:28;14.27;;;9.70;;
67595;SDS011;54410;48.694;8.934;2023-04-19T08:05:54;12.38;;;9.32;;
67595;SDS011;54410;48.694;8.934;2023-04-19T08:08:19;14.52;;;10.20;;
67595;SDS011;54410;48.694;8.934;2023-04-19T08:10:45;13.88;;;9.57;;
67595;SDS011;54410;48.694;8.934;2023-04-19T08:13:11;11.75;;;9.13;;
67595;SDS011;54410;48.694;8.934;2023-04-19T08:15:37;12.55;;;9.48;;
67595;SDS011;54410;48.694;8.934;2023-04-19T08:18:03;16.38;;;10.73;;
67595;SDS011;54410;48.694;8.934;2023-04-19T08:20:30;15.95;;;9.98;;
67595;SDS011;54410;48.694;8.934;2023-04-19T08:22:56;11.60;;;9.10;;
67595;SDS011;54410;48.694;8.934;2023-04-19T08:25:22;14.43;;;9.35;;
67595;SDS011;54410;48.694;8.934;2023-04-19T08:27:53;16.63;;;11.18;;
67595;SDS011;54410;48.694;8.934;2023-04-19T08:30:19;12.43;;;9.38;;
67595;SDS011;54410;48.694;8.934;2023-04-19T08:32:45;12.75;;;8.63;;
67595;SDS011;54410;48.694;8.934;2023-04-19T08:35:11;10.18;;;7.65;;
67595;SDS011;54410;48.694;8.934;2023-04-19T08:37:37;9.82;;;7.95;;
67595;SDS011;54410;48.694;8.934;2023-04-19T08:40:03;10.82;;;8.68;;
67595;SDS011;54410;48.694;8.934;2023-04-19T08:42:30;10.80;;;8.10;;
67595;SDS011;54410;48.694;8.934;2023-04-19T08:44:57;10.75;;;7.93;;
67595;SDS011;54410;48.694;8.934;2023-04-19T08:47:27;10.77;;;8.18;;
67595;SDS011;54410;48.694;8.934;2023-04-19T08:49:54;12.05;;;9.13;;
67595;SDS011;54410;48.694;8.934;2023-04-19T08:52:20;10.45;;;7.88;;
67595;SDS011;54410;48.694;8.934;2023-04-19T08:54:46;11.57;;;8.93;;
67595;SDS011;54410;48.694;8.934;2023-04-19T08:57:12;10.30;;;7.80;;
67595;SDS011;54410;48.694;8.934;2023-04-19T08:59:38;11.48;;;7.53;;
67595;SDS011;54410;48.694;8.934;2023-04-19T09:02:04;10.80;;;7.65;;
67595;SDS011;54410;48.694;8.934;2023-04-19T09:04:30;8.90;;;7.38;;
67595;SDS011;54410;48.694;8.934;2023-04-19T09:06:56;9.02;;;7.18;;
67595;SDS011;54410;48.694;8.934;2023-04-19T09:11:48;11.00;;;6.53;;
67595;SDS011;54410;48.694;8.934;2023-04-19T09:14:17;9.93;;;6.68;;
67595;SDS011;54410;48.694;8.934;2023-04-19T09:16:44;9.75;;;6.70;;
67595;SDS011;54410;48.694;8.934;2023-04-19T09:19:10;9.63;;;6.65;;
67595;SDS011;54410;48.694;8.934;2023-04-19T09:21:37;11.38;;;6.50;;
67595;SDS011;54410;48.694;8.934;2023-04-19T09:24:03;7.85;;;5.93;;
67595;SDS011;54410;48.694;8.934;2023-04-19T09:26:29;7.90;;;5.93;;
67595;SDS011;54410;48.694;8.934;2023-04-19T09:31:22;9.60;;;6.28;;
67595;SDS011;54410;48.694;8.934;2023-04-19T09:33:49;6.90;;;5.65;;
67595;SDS011;54410;48.694;8.934;2023-04-19T09:36:27;7.90;;;5.63;;
67595;SDS011;54410;48.694;8.934;2023-04-19T09:38:54;9.20;;;5.95;;
67595;SDS011;54410;48.694;8.934;2023-04-19T09:41:20;6.55;;;5.28;;
67595;SDS011;54410;48.694;8.934;2023-04-19T09:43:46;6.85;;;5.18;;
67595;SDS011;54410;48.694;8.934;2023-04-19T09:46:31;9.10;;;6.78;;
67595;SDS011;54410;48.694;8.934;2023-04-19T09:51:47;9.82;;;7.75;;
67595;SDS011;54410;48.694;8.934;2023-04-19T09:54:14;10.55;;;7.18;;
67595;SDS011;54410;48.694;8.934;2023-04-19T09:56:41;15.27;;;7.95;;
67595;SDS011;54410;48.694;8.934;2023-04-19T09:59:07;12.15;;;8.07;;
67595;SDS011;54410;48.694;8.934;2023-04-19T10:01:43;11.15;;;7.43;;
67595;SDS011;54410;48.694;8.934;2023-04-19T10:04:10;12.38;;;8.85;;
67595;SDS011;54410;48.694;8.934;2023-04-19T10:06:38;11.88;;;8.68;;
67595;SDS011;54410;48.694;8.934;2023-04-19T10:09:04;12.82;;;9.30;;
67595;SDS011;54410;48.694;8.934;2023-04-19T10:11:31;9.98;;;7.53;;
67595;SDS011;54410;48.694;8.934;2023-04-19T10:14:03;12.30;;;8.05;;
67595;SDS011;54410;48.694;8.934;2023-04-19T10:16:29;9.50;;;7.82;;
67595;SDS011;54410;48.694;8.934;2023-04-19T10:18:56;12.13;;;8.32;;
67595;SDS011;54410;48.694;8.934;2023-04-19T10:21:22;10.32;;;7.85;;
67595;SDS011;54410;48.694;8.934;2023-04-19T10:23:49;13.07;;;8.55;;
67595;SDS011;54410;48.694;8.934;2023-04-19T10:26:15;14.65;;;9.75;;
67595;SDS011;54410;48.694;8.934;2023-04-19T10:28:41;12.75;;;11.10;;
67595;SDS011;54410;48.694;8.934;2023-04-19T10:31:09;12.25;;;10.77;;
67595;SDS011;54410;48.694;8.934;2023-04-19T10:33:36;15.02;;;10.65;;
67595;SDS011;54410;48.694;8.934;2023-04-19T10:36:02;13.32;;;10.13;;
67595;SDS011;54410;48.694;8.934;2023-04-19T10:38:35;10.73;;;8.73;;
67595;SDS011;54410;48.694;8.934;2023-04-19T10:41:02;12.32;;;7.85;;
67595;SDS011;54410;48.694;8.934;2023-04-19T10:43:30;8.68;;;6.85;;
67595;SDS011;54410;48.694;8.934;2023-04-19T10:46:00;9.30;;;7.47;;
67595;SDS011;54410;48.694;8.934;2023-04-19T10:53:44;9.25;;;7.53;;
67595;SDS011;54410;48.694;8.934;2023-04-19T10:56:10;12.13;;;8.60;;
67595;SDS011;54410;48.694;8.934;2023-04-19T11:01:34;14.65;;;8.35;;
67595;SDS011;54410;48.694;8.934;2023-04-19T11:04:02;10.40;;;7.10;;
67595;SDS011;54410;48.694;8.934;2023-04-19T11:06:28;13.88;;;7.68;;
67595;SDS011;54410;48.694;8.934;2023-04-19T11:08:54;9.10;;;7.07;;
67595;SDS011;54410;48.694;8.934;2023-04-19T11:11:21;10.23;;;7.45;;
67595;SDS011;54410;48.694;8.934;2023-04-19T11:13:49;6.85;;;5.95;;
67595;SDS011;54410;48.694;8.934;2023-04-19T11:16:15;8.50;;;6.70;;
67595;SDS011;54410;48.694;8.934;2023-04-19T11:18:41;8.15;;;6.47;;
67595;SDS011;54410;48.694;8.934;2023-04-19T11:21:12;6.95;;;5.45;;
67595;SDS011;54410;48.694;8.934;2023-04-19T11:23:41;9.00;;;6.63;;
67595;SDS011;54410;48.694;8.934;2023-04-19T11:26:10;8.40;;;6.32;;
67595;SDS011;54410;48.694;8.934;2023-04-19T11:28:36;9.90;;;6.93;;
67595;SDS011;54410;48.694;8.934;2023-04-19T11:31:02;9.80;;;6.78;;
67595;SDS011;54410;48.694;8.934;2023-04-19T11:33:32;10.30;;;7.57;;
67595;SDS011;54410;48.694;8.934;2023-04-19T11:35:58;9.40;;;7.32;;
67595;SDS011;54410;48.694;8.934;2023-04-19T11:38:26;9.98;;;6.70;;
67595;SDS011;54410;48.694;8.934;2023-04-19T11:40:59;12.20;;;7.55;;
67595;SDS011;54410;48.694;8.934;2023-04-19T11:43:31;10.25;;;7.72;;
67595;SDS011;54410;48.694;8.934;2023-04-19T11:46:03;10.38;;;8.02;;
67595;SDS011;54410;48.694;8.934;2023-04-19T11:48:30;12.52;;;8.13;;
67595;SDS011;54410;48.694;8.934;2023-04-19T11:50:59;9.05;;;7.75;;
67595;SDS011;54410;48.694;8.934;2023-04-19T11:53:26;10.20;;;7.47;;
67595;SDS011;54410;48.694;8.934;2023-04-19T11:55:56;12.32;;;7.88;;
67595;SDS011;54410;48.694;8.934;2023-04-19T12:00:49;9.70;;;7.63;;
67595;SDS011;54410;48.694;8.934;2023-04-19T12:03:15;11.38;;;7.47;;
67595;SDS011;54410;48.694;8.934;2023-04-19T12:05:51;11.35;;;8.20;;
67595;SDS011;54410;48.694;8.934;2023-04-19T12:08:17;12.77;;;8.75;;
67595;SDS011;54410;48.694;8.934;2023-04-19T12:10:55;15.48;;;8.77;;
67595;SDS011;54410;48.694;8.934;2023-04-19T12:13:21;13.80;;;9.15;;
67595;SDS011;54410;48.694;8.934;2023-04-19T12:15:49;15.43;;;9.40;;
67595;SDS011;54410;48.694;8.934;2023-04-19T12:18:15;13.15;;;9.55;;
67595;SDS011;54410;48.694;8.934;2023-04-19T12:20:45;16.23;;;9.95;;
67595;SDS011;54410;48.694;8.934;2023-04-19T12:23:11;14.55;;;9.68;;
67595;SDS011;54410;48.694;8.934;2023-04-19T12:25:41;11.40;;;9.30;;
67595;SDS011;54410;48.694;8.934;2023-04-19T12:28:07;15.85;;;10.63;;
67595;SDS011;54410;48.694;8.934;2023-04-19T12:30:34;16.00;;;10.65;;
67595;SDS011;54410;48.694;8.934;2023-04-19T12:33:01;16.77;;;9.82;;
67595;SDS011;54410;48.694;8.934;2023-04-19T12:35:27;14.80;;;10.70;;
67595;SDS011;54410;48.694;8.934;2023-04-19T12:37:55;16.35;;;10.30;;
67595;SDS011;54410;48.694;8.934;2023-04-19T12:40:22;15.95;;;10.60;;
67595;SDS011;54410;48.694;8.934;2023-04-19T12:42:48;15.30;;;10.18;;
67595;SDS011;54410;48.694;8.934;2023-04-19T12:45:14;14.20;;;10.27;;
67595;SDS011;54410;48.694;8.934;2023-04-19T12:47:40;15.85;;;10.32;;
67595;SDS011;54410;48.694;8.934;2023-04-19T12:50:07;14.25;;;9.98;;
67595;SDS011;54410;48.694;8.934;2023-04-19T12:52:33;12.57;;;10.02;;
67595;SDS011;54410;48.694;8.934;2023-04-19T12:54:59;18.00;;;11.27;;
67595;SDS011;54410;48.694;8.934;2023-04-19T12:57:25;14.57;;;9.85;;
67595;SDS011;54410;48.694;8.934;2023-04-19T12:59:51;18.63;;;11.40;;
67595;SDS011;54410;48.694;8.934;2023-04-19T13:02:17;17.15;;;11.55;;
67595;SDS011;54410;48.694;8.934;2023-04-19T13:04:43;17.05;;;12.00;;
67595;SDS011;54410;48.694;8.934;2023-04-19T13:07:09;19.77;;;13.25;;
67595;SDS011;54410;48.694;8.934;2023-04-19T13:09:35;18.20;;;13.18;;
67595;SDS011;54410;48.694;8.934;2023-04-19T13:12:02;23.55;;;14.82;;
67595;SDS011;54410;48.694;8.934;2023-04-19T13:14:28;20.10;;;13.80;;
67595;SDS011;54410;48.694;8.934;2023-04-19T13:16:54;27.45;;;16.58;;
67595;SDS011;54410;48.694;8.934;2023-04-19T13:19:20;23.13;;;13.70;;
67595;SDS011;54410;48.694;8.934;2023-04-19T13:21:46;28.25;;;14.57;;
67595;SDS011;54410;48.694;8.934;2023-04-19T13:24:12;22.25;;;13.75;;
67595;SDS011;54410;48.694;8.934;2023-04-19T13:26:39;23.20;;;15.02;;
67595;SDS011;54410;48.694;8.934;2023-04-19T13:29:05;24.48;;;14.05;;
67595;SDS011;54410;48.694;8.934;2023-04-19T13:31:32;21.63;;;13.75;;
67595;SDS011;54410;48.694;8.934;2023-04-19T13:33:58;26.80;;;15.63;;
67595;SDS011;54410;48.694;8.934;2023-04-19T13:36:25;24.35;;;14.60;;
67595;SDS011;54410;48.694;8.934;2023-04-19T13:38:54;21.45;;;14.15;;
67595;SDS011;54410;48.694;8.934;2023-04-19T13:41:20;25.10;;;14.95;;
67595;SDS011;54410;48.694;8.934;2023-04-19T13:43:46;30.50;;;17.00;;
67595;SDS011;54410;48.694;8.934;2023-04-19T13:46:12;20.17;;;13.95;;
67595;SDS011;54410;48.694;8.934;2023-04-19T13:48:38;23.20;;;14.75;;
67595;SDS011;54410;48.694;8.934;2023-04-19T13:51:04;25.45;;;15.80;;
67595;SDS011;54410;48.694;8.934;2023-04-19T13:53:30;21.85;;;13.23;;
67595;SDS011;54410;48.694;8.934;2023-04-19T13:55:56;25.70;;;14.98;;
67595;SDS011;54410;48.694;8.934;2023-04-19T13:58:22;20.40;;;13.52;;
67595;SDS011;54410;48.694;8.934;2023-04-19T14:00:51;24.92;;;16.23;;
67595;SDS011;54410;48.694;8.934;2023-04-19T14:03:18;22.05;;;13.82;;
67595;SDS011;54410;48.694;8.934;2023-04-19T14:05:44;25.80;;;15.57;;
67595;SDS011;54410;48.694;8.934;2023-04-19T14:08:10;25.23;;;14.43;;
67595;SDS011;54410;48.694;8.934;2023-04-19T14:10:35;25.75;;;16.15;;
67595;SDS011;54410;48.694;8.934;2023-04-19T14:13:02;23.67;;;14.13;;
67595;SDS011;54410;48.694;8.934;2023-04-19T14:15:29;26.55;;;14.95;;
67595;SDS011;54410;48.694;8.934;2023-04-19T14:17:54;19.65;;;13.90;;
67595;SDS011;54410;48.694;8.934;2023-04-19T14:20:20;25.40;;;14.63;;
67595;SDS011;54410;48.694;8.934;2023-04-19T14:22:46;19.90;;;13.27;;
67595;SDS011;54410;48.694;8.934;2023-04-19T14:25:12;26.08;;;15.50;;
67595;SDS011;54410;48.694;8.934;2023-04-19T14:27:42;29.70;;;16.90;;
67595;SDS011;54410;48.694;8.934;2023-04-19T14:30:08;20.85;;;13.68;;
67595;SDS011;54410;48.694;8.934;2023-04-19T14:32:34;23.02;;;13.98;;
67595;SDS011;54410;48.694;8.934;2023-04-19T14:35:01;24.67;;;14.27;;
67595;SDS011;54410;48.694;8.934;2023-04-19T14:37:26;15.80;;;11.73;;
67595;SDS011;54410;48.694;8.934;2023-04-19T14:39:52;26.05;;;14.68;;
67595;SDS011;54410;48.694;8.934;2023-04-19T14:42:18;21.65;;;13.75;;